3LL7 weather

St Margarets Hospital Heliport
Spring Valley, Illinois, United States

Public forecast

Using degrees Fahrenheit for public forecast. Weather courtesy of forecast.io.

METAR (pilot weather report)

Closest report is Illinois Valley Regional Airport-Walter A Duncan Field, 2.6 nm (4.8 km) NE. Retrieved 2019/08/21 19:35 UTC (0 seconds ago):

KVYS 211935Z AUTO 29011G15KT 10SM SCT070 SCT090 SCT120 24/21 A3000 RMK AO2 LTG DSNT N T02410207

TAF (pilot weather forecast)

Closest forecast is General Wayne A. Downing Peoria International Airport, 45.6 nm (84.4 km) SSW. Retrieved 2019/08/21 18:54 UTC (31 minutes ago):

TAF KPIA 211750Z 2118/2218 28008KT P6SM VCSH SCT015 BKN025 TEMPO 2118/2119 BKN015 FM211900 31007KT P6SM VCTS SCT025CB BKN035 TEMPO 2119/2121 5SM TSRA BR BKN025CB FM212200 30006KT P6SM SCT030 BKN050 FM220900 VRB04KT 4SM BR VCSH BKN025 FM221200 VRB04KT 4SM BR VCSH BKN015 FM221500 VRB04KT P6SM SCT035 BKN050